sensor_id;sensor_type;location;lat;lon;timestamp;temperature;humidity
66861;SHT31;53770;42.334;23.550;2022-09-28T00:00:18;10.79;92.52
66861;SHT31;53770;42.334;23.550;2022-09-28T00:02:46;10.64;92.72
66861;SHT31;53770;42.334;23.550;2022-09-28T00:05:13;10.61;92.77
66861;SHT31;53770;42.334;23.550;2022-09-28T00:07:40;10.62;92.72
66861;SHT31;53770;42.334;23.550;2022-09-28T00:10:07;10.61;92.84
66861;SHT31;53770;42.334;23.550;2022-09-28T00:12:34;10.57;92.76
66861;SHT31;53770;42.334;23.550;2022-09-28T00:15:01;10.52;92.58
66861;SHT31;53770;42.334;23.550;2022-09-28T00:17:27;10.52;92.61
66861;SHT31;53770;42.334;23.550;2022-09-28T00:19:56;10.52;92.55
66861;SHT31;53770;42.334;23.550;2022-09-28T00:22:23;10.42;92.63
66861;SHT31;53770;42.334;23.550;2022-09-28T00:24:50;10.41;92.79
66861;SHT31;53770;42.334;23.550;2022-09-28T00:27:16;10.41;92.70
66861;SHT31;53770;42.334;23.550;2022-09-28T00:29:43;10.38;92.67
66861;SHT31;53770;42.334;23.550;2022-09-28T00:32:11;10.28;92.69
66861;SHT31;53770;42.334;23.550;2022-09-28T00:34:39;10.27;92.61
66861;SHT31;53770;42.334;23.550;2022-09-28T00:37:09;10.20;92.72
66861;SHT31;53770;42.334;23.550;2022-09-28T00:39:36;10.20;92.70
66861;SHT31;53770;42.334;23.550;2022-09-28T00:42:10;10.24;92.66
66861;SHT31;53770;42.334;23.550;2022-09-28T00:44:42;10.24;92.57
66861;SHT31;53770;42.334;23.550;2022-09-28T00:47:40;10.18;92.64
66861;SHT31;53770;42.334;23.550;2022-09-28T00:50:14;10.16;92.68
66861;SHT31;53770;42.334;23.550;2022-09-28T00:52:47;10.10;92.69
66861;SHT31;53770;42.334;23.550;2022-09-28T00:55:16;10.06;92.64
66861;SHT31;53770;42.334;23.550;2022-09-28T00:57:48;10.04;92.64
66861;SHT31;53770;42.334;23.550;2022-09-28T01:00:16;9.97;92.62
66861;SHT31;53770;42.334;23.550;2022-09-28T01:02:43;9.96;92.68
66861;SHT31;53770;42.334;23.550;2022-09-28T01:05:11;9.97;92.67
66861;SHT31;53770;42.334;23.550;2022-09-28T01:07:39;9.96;92.70
66861;SHT31;53770;42.334;23.550;2022-09-28T01:10:08;9.94;92.70
66861;SHT31;53770;42.334;23.550;2022-09-28T01:12:35;9.97;92.60
66861;SHT31;53770;42.334;23.550;2022-09-28T01:15:02;9.97;92.47
66861;SHT31;53770;42.334;23.550;2022-09-28T01:17:40;9.87;92.38
66861;SHT31;53770;42.334;23.550;2022-09-28T01:20:32;9.83;92.45
66861;SHT31;53770;42.334;23.550;2022-09-28T01:25:53;9.71;92.53
66861;SHT31;53770;42.334;23.550;2022-09-28T01:28:24;9.69;92.59
66861;SHT31;53770;42.334;23.550;2022-09-28T01:31:00;9.69;92.59
66861;SHT31;53770;42.334;23.550;2022-09-28T01:33:35;9.68;92.55
66861;SHT31;53770;42.334;23.550;2022-09-28T01:36:06;9.68;92.48
66861;SHT31;53770;42.334;23.550;2022-09-28T01:38:39;9.76;92.55
66861;SHT31;53770;42.334;23.550;2022-09-28T01:41:08;9.73;92.49
66861;SHT31;53770;42.334;23.550;2022-09-28T01:43:39;9.75;92.55
66861;SHT31;53770;42.334;23.550;2022-09-28T01:46:11;9.75;92.61
66861;SHT31;53770;42.334;23.550;2022-09-28T01:48:42;9.76;92.36
66861;SHT31;53770;42.334;23.550;2022-09-28T01:51:15;9.79;92.34
66861;SHT31;53770;42.334;23.550;2022-09-28T01:53:45;9.76;92.22
66861;SHT31;53770;42.334;23.550;2022-09-28T01:56:17;9.71;92.36
66861;SHT31;53770;42.334;23.550;2022-09-28T01:58:52;9.71;92.35
66861;SHT31;53770;42.334;23.550;2022-09-28T02:01:26;9.69;92.35
66861;SHT31;53770;42.334;23.550;2022-09-28T02:03:58;9.68;92.27
66861;SHT31;53770;42.334;23.550;2022-09-28T02:06:32;9.76;92.07
66861;SHT31;53770;42.334;23.550;2022-09-28T02:09:04;9.71;92.03
66861;SHT31;53770;42.334;23.550;2022-09-28T02:11:34;9.71;91.92
66861;SHT31;53770;42.334;23.550;2022-09-28T02:14:07;9.66;91.98
66861;SHT31;53770;42.334;23.550;2022-09-28T02:16:38;9.65;91.99
66861;SHT31;53770;42.334;23.550;2022-09-28T02:19:06;9.63;92.17
66861;SHT31;53770;42.334;23.550;2022-09-28T02:21:40;9.68;91.89
66861;SHT31;53770;42.334;23.550;2022-09-28T02:24:11;9.68;91.96
66861;SHT31;53770;42.334;23.550;2022-09-28T02:26:42;9.72;92.13
66861;SHT31;53770;42.334;23.550;2022-09-28T02:29:11;9.73;91.74
66861;SHT31;53770;42.334;23.550;2022-09-28T02:31:38;9.66;91.53
66861;SHT31;53770;42.334;23.550;2022-09-28T02:34:05;9.63;91.75
66861;SHT31;53770;42.334;23.550;2022-09-28T02:36:32;9.61;91.29
66861;SHT31;53770;42.334;23.550;2022-09-28T02:38:59;9.71;91.44
66861;SHT31;53770;42.334;23.550;2022-09-28T02:41:36;9.71;91.53
66861;SHT31;53770;42.334;23.550;2022-09-28T02:44:13;9.72;91.26
66861;SHT31;53770;42.334;23.550;2022-09-28T02:46:46;9.65;91.52
66861;SHT31;53770;42.334;23.550;2022-09-28T02:49:24;9.59;91.34
66861;SHT31;53770;42.334;23.550;2022-09-28T02:52:16;9.51;91.53
66861;SHT31;53770;42.334;23.550;2022-09-28T02:55:15;9.52;91.68
66861;SHT31;53770;42.334;23.550;2022-09-28T02:57:51;9.51;91.45
66861;SHT31;53770;42.334;23.550;2022-09-28T03:00:24;9.59;91.51
66861;SHT31;53770;42.334;23.550;2022-09-28T03:03:00;9.68;91.78
66861;SHT31;53770;42.334;23.550;2022-09-28T03:05:31;9.66;91.60
66861;SHT31;53770;42.334;23.550;2022-09-28T03:08:07;9.51;91.71
66861;SHT31;53770;42.334;23.550;2022-09-28T03:10:38;9.45;91.92
66861;SHT31;53770;42.334;23.550;2022-09-28T03:13:08;9.41;91.92
66861;SHT31;53770;42.334;23.550;2022-09-28T03:15:36;9.38;91.93
66861;SHT31;53770;42.334;23.550;2022-09-28T03:18:03;9.36;92.06
66861;SHT31;53770;42.334;23.550;2022-09-28T03:20:30;9.34;92.15
66861;SHT31;53770;42.334;23.550;2022-09-28T03:22:57;9.31;92.22
66861;SHT31;53770;42.334;23.550;2022-09-28T03:25:25;9.30;92.16
66861;SHT31;53770;42.334;23.550;2022-09-28T03:27:51;9.32;91.99
66861;SHT31;53770;42.334;23.550;2022-09-28T03:30:18;9.27;92.06
66861;SHT31;53770;42.334;23.550;2022-09-28T03:32:55;9.24;92.22
66861;SHT31;53770;42.334;23.550;2022-09-28T03:35:22;9.23;92.07
66861;SHT31;53770;42.334;23.550;2022-09-28T03:37:49;9.27;91.69
66861;SHT31;53770;42.334;23.550;2022-09-28T03:40:19;9.20;92.19
66861;SHT31;53770;42.334;23.550;2022-09-28T03:42:46;9.21;92.06
66861;SHT31;53770;42.334;23.550;2022-09-28T03:45:12;9.21;91.96
66861;SHT31;53770;42.334;23.550;2022-09-28T03:47:44;9.27;91.71
66861;SHT31;53770;42.334;23.550;2022-09-28T03:50:12;9.35;91.62
66861;SHT31;53770;42.334;23.550;2022-09-28T03:52:39;9.30;91.96
66861;SHT31;53770;42.334;23.550;2022-09-28T03:55:06;9.25;92.06
66861;SHT31;53770;42.334;23.550;2022-09-28T03:57:33;9.28;91.74
66861;SHT31;53770;42.334;23.550;2022-09-28T04:00:00;9.31;91.45
66861;SHT31;53770;42.334;23.550;2022-09-28T04:02:27;9.34;91.20
66861;SHT31;53770;42.334;23.550;2022-09-28T04:04:54;9.32;91.26
66861;SHT31;53770;42.334;23.550;2022-09-28T04:07:22;9.28;91.51
66861;SHT31;53770;42.334;23.550;2022-09-28T04:09:49;9.30;91.30
66861;SHT31;53770;42.334;23.550;2022-09-28T04:12:16;9.24;91.42
66861;SHT31;53770;42.334;23.550;2022-09-28T04:14:43;9.18;91.35
66861;SHT31;53770;42.334;23.550;2022-09-28T04:17:09;9.20;91.40
66861;SHT31;53770;42.334;23.550;2022-09-28T04:19:36;9.18;91.01
66861;SHT31;53770;42.334;23.550;2022-09-28T04:22:03;9.17;91.07
66861;SHT31;53770;42.334;23.550;2022-09-28T04:24:31;9.10;91.23
66861;SHT31;53770;42.334;23.550;2022-09-28T04:26:58;9.00;91.13
66861;SHT31;53770;42.334;23.550;2022-09-28T04:29:38;8.91;91.52
66861;SHT31;53770;42.334;23.550;2022-09-28T04:32:08;8.96;91.66
66861;SHT31;53770;42.334;23.550;2022-09-28T04:34:35;8.94;91.68
66861;SHT31;53770;42.334;23.550;2022-09-28T04:37:02;9.01;91.68
66861;SHT31;53770;42.334;23.550;2022-09-28T04:39:30;9.10;91.45
66861;SHT31;53770;42.334;23.550;2022-09-28T04:41:57;9.14;91.28
66861;SHT31;53770;42.334;23.550;2022-09-28T04:44:24;9.23;91.46
66861;SHT31;53770;42.334;23.550;2022-09-28T04:46:50;9.31;91.57
66861;SHT31;53770;42.334;23.550;2022-09-28T04:49:17;9.35;91.11
66861;SHT31;53770;42.334;23.550;2022-09-28T04:51:44;9.38;90.76
66861;SHT31;53770;42.334;23.550;2022-09-28T04:54:11;9.45;90.74
66861;SHT31;53770;42.334;23.550;2022-09-28T04:56:39;9.46;90.87
66861;SHT31;53770;42.334;23.550;2022-09-28T04:59:06;9.42;90.78
66861;SHT31;53770;42.334;23.550;2022-09-28T05:01:32;9.45;91.21
66861;SHT31;53770;42.334;23.550;2022-09-28T05:04:00;9.48;90.50
66861;SHT31;53770;42.334;23.550;2022-09-28T05:06:26;9.54;90.58
66861;SHT31;53770;42.334;23.550;2022-09-28T05:08:55;9.52;90.44
66861;SHT31;53770;42.334;23.550;2022-09-28T05:11:22;9.63;90.43
66861;SHT31;53770;42.334;23.550;2022-09-28T05:13:50;9.76;90.54
66861;SHT31;53770;42.334;23.550;2022-09-28T05:16:17;9.87;90.04
66861;SHT31;53770;42.334;23.550;2022-09-28T05:18:44;9.90;90.44
66861;SHT31;53770;42.334;23.550;2022-09-28T05:21:13;9.97;89.80
66861;SHT31;53770;42.334;23.550;2022-09-28T05:23:44;10.20;89.93
66861;SHT31;53770;42.334;23.550;2022-09-28T05:26:11;10.45;90.17
66861;SHT31;53770;42.334;23.550;2022-09-28T05:28:37;10.58;89.28
66861;SHT31;53770;42.334;23.550;2022-09-28T05:31:05;10.69;87.82
66861;SHT31;53770;42.334;23.550;2022-09-28T05:33:33;10.89;89.79
66861;SHT31;53770;42.334;23.550;2022-09-28T05:36:01;11.02;88.09
66861;SHT31;53770;42.334;23.550;2022-09-28T05:38:28;11.13;88.44
66861;SHT31;53770;42.334;23.550;2022-09-28T05:40:55;11.19;88.33
66861;SHT31;53770;42.334;23.550;2022-09-28T05:43:22;11.24;87.84
66861;SHT31;53770;42.334;23.550;2022-09-28T05:45:49;11.34;87.23
66861;SHT31;53770;42.334;23.550;2022-09-28T05:48:17;11.48;88.80
66861;SHT31;53770;42.334;23.550;2022-09-28T05:50:43;11.57;87.54
66861;SHT31;53770;42.334;23.550;2022-09-28T05:53:15;11.71;87.86
66861;SHT31;53770;42.334;23.550;2022-09-28T05:55:42;11.79;87.42
66861;SHT31;53770;42.334;23.550;2022-09-28T05:58:08;11.92;86.93
66861;SHT31;53770;42.334;23.550;2022-09-28T06:00:35;12.05;86.94
66861;SHT31;53770;42.334;23.550;2022-09-28T06:03:04;12.27;87.71
66861;SHT31;53770;42.334;23.550;2022-09-28T06:05:33;12.41;86.02
66861;SHT31;53770;42.334;23.550;2022-09-28T06:08:01;12.61;87.83
66861;SHT31;53770;42.334;23.550;2022-09-28T06:10:28;12.74;85.82
66861;SHT31;53770;42.334;23.550;2022-09-28T06:12:56;12.94;85.99
66861;SHT31;53770;42.334;23.550;2022-09-28T06:15:24;13.15;87.86
66861;SHT31;53770;42.334;23.550;2022-09-28T06:17:55;13.30;86.95
66861;SHT31;53770;42.334;23.550;2022-09-28T06:20:23;13.51;87.83
66861;SHT31;53770;42.334;23.550;2022-09-28T06:22:51;13.71;87.03
66861;SHT31;53770;42.334;23.550;2022-09-28T06:25:18;13.77;85.36
66861;SHT31;53770;42.334;23.550;2022-09-28T06:27:53;13.75;83.02
66861;SHT31;53770;42.334;23.550;2022-09-28T06:30:19;13.87;80.85
66861;SHT31;53770;42.334;23.550;2022-09-28T06:32:46;14.11;82.94
66861;SHT31;53770;42.334;23.550;2022-09-28T06:35:14;14.21;82.73
66861;SHT31;53770;42.334;23.550;2022-09-28T06:37:43;14.36;82.89
66861;SHT31;53770;42.334;23.550;2022-09-28T06:40:11;14.60;84.26
66861;SHT31;53770;42.334;23.550;2022-09-28T06:42:38;14.87;85.26
66861;SHT31;53770;42.334;23.550;2022-09-28T06:45:06;15.08;84.26
66861;SHT31;53770;42.334;23.550;2022-09-28T06:47:32;15.25;84.33
66861;SHT31;53770;42.334;23.550;2022-09-28T06:49:59;15.42;80.93
66861;SHT31;53770;42.334;23.550;2022-09-28T06:52:26;15.56;83.16
66861;SHT31;53770;42.334;23.550;2022-09-28T06:54:53;15.70;82.28
66861;SHT31;53770;42.334;23.550;2022-09-28T06:57:21;15.83;79.84
66861;SHT31;53770;42.334;23.550;2022-09-28T06:59:47;15.98;82.55
66861;SHT31;53770;42.334;23.550;2022-09-28T07:02:14;16.21;83.85
66861;SHT31;53770;42.334;23.550;2022-09-28T07:04:41;16.44;81.71
66861;SHT31;53770;42.334;23.550;2022-09-28T07:07:09;16.66;84.69
66861;SHT31;53770;42.334;23.550;2022-09-28T07:09:36;16.87;85.42
66861;SHT31;53770;42.334;23.550;2022-09-28T07:12:03;17.06;83.96
66861;SHT31;53770;42.334;23.550;2022-09-28T07:14:31;17.10;75.57
66861;SHT31;53770;42.334;23.550;2022-09-28T07:16:58;17.16;74.12
66861;SHT31;53770;42.334;23.550;2022-09-28T07:19:25;17.31;79.08
66861;SHT31;53770;42.334;23.550;2022-09-28T07:21:52;17.46;76.47
66861;SHT31;53770;42.334;23.550;2022-09-28T07:24:18;17.71;80.09
66861;SHT31;53770;42.334;23.550;2022-09-28T07:26:45;17.94;76.72
66861;SHT31;53770;42.334;23.550;2022-09-28T07:29:12;18.14;78.24
66861;SHT31;53770;42.334;23.550;2022-09-28T07:31:40;18.36;80.69
66861;SHT31;53770;42.334;23.550;2022-09-28T07:34:06;18.61;81.22
66861;SHT31;53770;42.334;23.550;2022-09-28T07:36:33;18.84;78.33
66861;SHT31;53770;42.334;23.550;2022-09-28T07:39:01;19.03;79.94
66861;SHT31;53770;42.334;23.550;2022-09-28T07:41:27;19.30;78.17
66861;SHT31;53770;42.334;23.550;2022-09-28T07:43:59;19.43;70.93
66861;SHT31;53770;42.334;23.550;2022-09-28T07:46:31;19.68;79.47
66861;SHT31;53770;42.334;23.550;2022-09-28T07:48:59;19.86;75.59
66861;SHT31;53770;42.334;23.550;2022-09-28T07:51:30;20.16;78.09
66861;SHT31;53770;42.334;23.550;2022-09-28T07:53:56;20.26;73.88
66861;SHT31;53770;42.334;23.550;2022-09-28T07:56:23;20.39;66.19
66861;SHT31;53770;42.334;23.550;2022-09-28T07:58:50;20.67;65.78
66861;SHT31;53770;42.334;23.550;2022-09-28T08:01:17;21.16;71.30
66861;SHT31;53770;42.334;23.550;2022-09-28T08:03:44;21.83;72.28
66861;SHT31;53770;42.334;23.550;2022-09-28T08:06:15;22.49;66.13
66861;SHT31;53770;42.334;23.550;2022-09-28T08:08:42;22.84;65.66
66861;SHT31;53770;42.334;23.550;2022-09-28T08:11:10;22.22;57.81
66861;SHT31;53770;42.334;23.550;2022-09-28T08:13:36;21.87;58.11
66861;SHT31;53770;42.334;23.550;2022-09-28T08:16:04;21.23;56.52
66861;SHT31;53770;42.334;23.550;2022-09-28T08:18:31;20.98;60.87
66861;SHT31;53770;42.334;23.550;2022-09-28T08:20:59;21.40;61.77
66861;SHT31;53770;42.334;23.550;2022-09-28T08:23:44;21.77;60.31
66861;SHT31;53770;42.334;23.550;2022-09-28T08:26:11;21.50;55.79
66861;SHT31;53770;42.334;23.550;2022-09-28T08:28:38;21.43;62.51
66861;SHT31;53770;42.334;23.550;2022-09-28T08:31:07;21.51;61.66
66861;SHT31;53770;42.334;23.550;2022-09-28T08:33:33;21.76;54.89
66861;SHT31;53770;42.334;23.550;2022-09-28T08:36:01;21.78;53.76
66861;SHT31;53770;42.334;23.550;2022-09-28T08:38:29;21.80;53.91
66861;SHT31;53770;42.334;23.550;2022-09-28T08:41:02;21.80;54.75
66861;SHT31;53770;42.334;23.550;2022-09-28T08:43:45;21.32;56.19
66861;SHT31;53770;42.334;23.550;2022-09-28T08:46:16;21.43;54.85
66861;SHT31;53770;42.334;23.550;2022-09-28T08:48:49;21.35;53.73
66861;SHT31;53770;42.334;23.550;2022-09-28T08:51:21;21.21;56.17
66861;SHT31;53770;42.334;23.550;2022-09-28T08:53:53;21.11;55.74
66861;SHT31;53770;42.334;23.550;2022-09-28T08:56:27;21.11;56.30
66861;SHT31;53770;42.334;23.550;2022-09-28T08:58:59;21.28;59.64
66861;SHT31;53770;42.334;23.550;2022-09-28T09:01:31;21.86;57.69
66861;SHT31;53770;42.334;23.550;2022-09-28T09:04:02;21.88;52.44
66861;SHT31;53770;42.334;23.550;2022-09-28T09:06:35;22.53;58.20
66861;SHT31;53770;42.334;23.550;2022-09-28T09:09:09;22.97;54.77
66861;SHT31;53770;42.334;23.550;2022-09-28T09:11:54;22.63;51.78
66861;SHT31;53770;42.334;23.550;2022-09-28T09:14:35;22.83;57.91
66861;SHT31;53770;42.334;23.550;2022-09-28T09:17:12;22.60;52.75
66861;SHT31;53770;42.334;23.550;2022-09-28T09:19:51;22.38;56.43
66861;SHT31;53770;42.334;23.550;2022-09-28T09:22:29;22.84;50.97
66861;SHT31;53770;42.334;23.550;2022-09-28T09:25:12;23.69;55.18
66861;SHT31;53770;42.334;23.550;2022-09-28T09:27:51;24.92;56.86
66861;SHT31;53770;42.334;23.550;2022-09-28T09:30:20;25.03;49.56
66861;SHT31;53770;42.334;23.550;2022-09-28T09:33:05;25.41;54.36
66861;SHT31;53770;42.334;23.550;2022-09-28T09:35:57;26.30;48.07
66861;SHT31;53770;42.334;23.550;2022-09-28T09:38:40;27.09;49.53
66861;SHT31;53770;42.334;23.550;2022-09-28T09:41:18;27.16;45.75
66861;SHT31;53770;42.334;23.550;2022-09-28T09:46:46;26.40;49.06
66861;SHT31;53770;42.334;23.550;2022-09-28T09:49:19;27.53;42.67
66861;SHT31;53770;42.334;23.550;2022-09-28T09:51:50;28.76;48.69
66861;SHT31;53770;42.334;23.550;2022-09-28T09:54:20;29.58;40.61
66861;SHT31;53770;42.334;23.550;2022-09-28T09:56:52;30.49;43.88
66861;SHT31;53770;42.334;23.550;2022-09-28T09:59:25;31.78;41.98
66861;SHT31;53770;42.334;23.550;2022-09-28T10:01:54;32.75;38.20
66861;SHT31;53770;42.334;23.550;2022-09-28T10:04:24;33.48;35.65
66861;SHT31;53770;42.334;23.550;2022-09-28T10:06:57;33.80;36.45
66861;SHT31;53770;42.334;23.550;2022-09-28T10:09:29;33.84;36.05
66861;SHT31;53770;42.334;23.550;2022-09-28T10:11:58;33.69;30.72
66861;SHT31;53770;42.334;23.550;2022-09-28T10:14:26;33.98;33.02
66861;SHT31;53770;42.334;23.550;2022-09-28T10:16:55;32.88;28.83
66861;SHT31;53770;42.334;23.550;2022-09-28T10:19:29;31.27;30.14
66861;SHT31;53770;42.334;23.550;2022-09-28T10:21:58;29.38;32.14
66861;SHT31;53770;42.334;23.550;2022-09-28T10:24:31;31.16;33.69
66861;SHT31;53770;42.334;23.550;2022-09-28T10:27:04;31.65;31.81
66861;SHT31;53770;42.334;23.550;2022-09-28T10:29:40;29.67;31.32
66861;SHT31;53770;42.334;23.550;2022-09-28T10:32:21;29.24;34.67
66861;SHT31;53770;42.334;23.550;2022-09-28T10:34:49;31.60;35.01
66861;SHT31;53770;42.334;23.550;2022-09-28T10:37:16;33.49;33.33
66861;SHT31;53770;42.334;23.550;2022-09-28T10:39:46;35.21;24.92
66861;SHT31;53770;42.334;23.550;2022-09-28T10:42:18;35.55;29.16
66861;SHT31;53770;42.334;23.550;2022-09-28T10:44:54;36.27;28.66
66861;SHT31;53770;42.334;23.550;2022-09-28T10:47:22;35.48;24.21
66861;SHT31;53770;42.334;23.550;2022-09-28T10:49:50;35.58;24.99
66861;SHT31;53770;42.334;23.550;2022-09-28T10:52:33;34.31;25.38
66861;SHT31;53770;42.334;23.550;2022-09-28T10:55:02;32.57;28.30
66861;SHT31;53770;42.334;23.550;2022-09-28T10:57:48;33.39;26.94
66861;SHT31;53770;42.334;23.550;2022-09-28T11:00:33;34.58;28.65
66861;SHT31;53770;42.334;23.550;2022-09-28T11:03:01;36.27;25.59
66861;SHT31;53770;42.334;23.550;2022-09-28T11:05:28;37.87;24.01
66861;SHT31;53770;42.334;23.550;2022-09-28T11:07:56;38.73;22.37
66861;SHT31;53770;42.334;23.550;2022-09-28T11:10:26;40.08;22.72
66861;SHT31;53770;42.334;23.550;2022-09-28T11:12:53;38.65;21.27
66861;SHT31;53770;42.334;23.550;2022-09-28T11:15:26;37.22;21.77
66861;SHT31;53770;42.334;23.550;2022-09-28T11:17:53;38.24;24.38
66861;SHT31;53770;42.334;23.550;2022-09-28T11:20:30;39.41;22.15
66861;SHT31;53770;42.334;23.550;2022-09-28T11:23:00;39.48;21.85
66861;SHT31;53770;42.334;23.550;2022-09-28T11:25:28;37.60;23.28
66861;SHT31;53770;42.334;23.550;2022-09-28T11:27:58;34.62;24.72
66861;SHT31;53770;42.334;23.550;2022-09-28T11:30:29;31.35;27.87
66861;SHT31;53770;42.334;23.550;2022-09-28T11:33:02;29.90;31.03
66861;SHT31;53770;42.334;23.550;2022-09-28T11:35:41;29.19;32.99
66861;SHT31;53770;42.334;23.550;2022-09-28T11:38:30;27.83;31.31
66861;SHT31;53770;42.334;23.550;2022-09-28T11:41:23;26.85;32.15
66861;SHT31;53770;42.334;23.550;2022-09-28T11:44:09;26.96;33.65
66861;SHT31;53770;42.334;23.550;2022-09-28T11:46:48;30.49;29.50
66861;SHT31;53770;42.334;23.550;2022-09-28T11:49:26;34.00;25.88
66861;SHT31;53770;42.334;23.550;2022-09-28T11:51:59;34.59;25.59
66861;SHT31;53770;42.334;23.550;2022-09-28T11:54:31;35.47;24.70
66861;SHT31;53770;42.334;23.550;2022-09-28T11:57:02;36.03;23.18
66861;SHT31;53770;42.334;23.550;2022-09-28T11:59:33;33.56;24.28
66861;SHT31;53770;42.334;23.550;2022-09-28T12:02:10;33.43;24.11
66861;SHT31;53770;42.334;23.550;2022-09-28T12:04:41;34.45;23.34
66861;SHT31;53770;42.334;23.550;2022-09-28T12:07:13;34.95;24.60
66861;SHT31;53770;42.334;23.550;2022-09-28T12:09:45;35.93;23.31
66861;SHT31;53770;42.334;23.550;2022-09-28T12:12:20;34.29;23.06
66861;SHT31;53770;42.334;23.550;2022-09-28T12:14:52;31.62;26.11
66861;SHT31;53770;42.334;23.550;2022-09-28T12:17:24;31.02;29.38
66861;SHT31;53770;42.334;23.550;2022-09-28T12:19:57;31.48;28.57
66861;SHT31;53770;42.334;23.550;2022-09-28T12:22:30;32.01;27.61
66861;SHT31;53770;42.334;23.550;2022-09-28T12:24:58;31.53;27.64
66861;SHT31;53770;42.334;23.550;2022-09-28T12:27:28;30.78;28.63
66861;SHT31;53770;42.334;23.550;2022-09-28T12:30:03;30.76;28.88
66861;SHT31;53770;42.334;23.550;2022-09-28T12:32:34;33.42;26.71
66861;SHT31;53770;42.334;23.550;2022-09-28T12:35:09;35.26;23.03
66861;SHT31;53770;42.334;23.550;2022-09-28T12:37:49;35.82;23.20
66861;SHT31;53770;42.334;23.550;2022-09-28T12:40:36;36.15;22.70
66861;SHT31;53770;42.334;23.550;2022-09-28T12:43:37;36.39;23.30
66861;SHT31;53770;42.334;23.550;2022-09-28T12:49:21;34.89;25.56
66861;SHT31;53770;42.334;23.550;2022-09-28T12:51:51;32.77;24.95
66861;SHT31;53770;42.334;23.550;2022-09-28T12:54:28;29.96;28.07
66861;SHT31;53770;42.334;23.550;2022-09-28T12:57:07;28.89;30.26
66861;SHT31;53770;42.334;23.550;2022-09-28T12:59:45;27.90;32.60
66861;SHT31;53770;42.334;23.550;2022-09-28T13:02:35;26.99;34.32
66861;SHT31;53770;42.334;23.550;2022-09-28T13:05:24;26.51;36.14
66861;SHT31;53770;42.334;23.550;2022-09-28T13:07:59;25.74;34.80
66861;SHT31;53770;42.334;23.550;2022-09-28T13:10:32;25.26;37.18
66861;SHT31;53770;42.334;23.550;2022-09-28T13:13:17;25.27;36.40
66861;SHT31;53770;42.334;23.550;2022-09-28T13:15:52;25.23;36.90
66861;SHT31;53770;42.334;23.550;2022-09-28T13:18:26;24.68;37.44
66861;SHT31;53770;42.334;23.550;2022-09-28T13:21:03;24.30;38.58
66861;SHT31;53770;42.334;23.550;2022-09-28T13:23:34;24.34;39.00
66861;SHT31;53770;42.334;23.550;2022-09-28T13:26:10;24.68;37.27
66861;SHT31;53770;42.334;23.550;2022-09-28T13:28:39;25.27;36.54
66861;SHT31;53770;42.334;23.550;2022-09-28T13:31:07;27.26;34.33
66861;SHT31;53770;42.334;23.550;2022-09-28T13:33:35;30.40;30.10
66861;SHT31;53770;42.334;23.550;2022-09-28T13:39:35;30.57;27.01
66861;SHT31;53770;42.334;23.550;2022-09-28T13:42:04;32.52;26.16
66861;SHT31;53770;42.334;23.550;2022-09-28T13:45:02;33.18;23.40
66861;SHT31;53770;42.334;23.550;2022-09-28T13:47:47;33.02;24.83
66861;SHT31;53770;42.334;23.550;2022-09-28T13:50:22;32.60;24.52
66861;SHT31;53770;42.334;23.550;2022-09-28T13:53:01;31.04;26.59
66861;SHT31;53770;42.334;23.550;2022-09-28T13:55:36;31.99;25.37
66861;SHT31;53770;42.334;23.550;2022-09-28T13:58:15;32.91;26.65
66861;SHT31;53770;42.334;23.550;2022-09-28T14:00:47;33.92;25.29
66861;SHT31;53770;42.334;23.550;2022-09-28T14:03:25;34.27;25.22
66861;SHT31;53770;42.334;23.550;2022-09-28T14:06:04;35.04;24.17
66861;SHT31;53770;42.334;23.550;2022-09-28T14:08:38;34.42;21.68
66861;SHT31;53770;42.334;23.550;2022-09-28T14:11:40;35.08;22.02
66861;SHT31;53770;42.334;23.550;2022-09-28T14:14:44;34.66;21.98
66861;SHT31;53770;42.334;23.550;2022-09-28T14:20:22;32.15;24.27
66861;SHT31;53770;42.334;23.550;2022-09-28T14:28:56;28.26;28.25
66861;SHT31;53770;42.334;23.550;2022-09-28T14:31:28;26.53;31.31
66861;SHT31;53770;42.334;23.550;2022-09-28T14:33:57;27.12;30.02
66861;SHT31;53770;42.334;23.550;2022-09-28T14:36:28;27.66;29.39
66861;SHT31;53770;42.334;23.550;2022-09-28T14:39:21;28.55;28.51
66861;SHT31;53770;42.334;23.550;2022-09-28T14:42:12;29.10;27.39
66861;SHT31;53770;42.334;23.550;2022-09-28T14:48:03;29.42;27.94
66861;SHT31;53770;42.334;23.550;2022-09-28T14:50:30;29.99;27.67
66861;SHT31;53770;42.334;23.550;2022-09-28T14:53:03;30.32;26.60
66861;SHT31;53770;42.334;23.550;2022-09-28T14:55:33;30.21;26.84
66861;SHT31;53770;42.334;23.550;2022-09-28T14:58:14;30.11;27.24
66861;SHT31;53770;42.334;23.550;2022-09-28T15:00:43;30.18;27.26
66861;SHT31;53770;42.334;23.550;2022-09-28T15:03:11;30.27;27.07
66861;SHT31;53770;42.334;23.550;2022-09-28T15:05:42;29.83;28.05
66861;SHT31;53770;42.334;23.550;2022-09-28T15:08:11;29.51;28.60
66861;SHT31;53770;42.334;23.550;2022-09-28T15:10:42;29.38;28.51
66861;SHT31;53770;42.334;23.550;2022-09-28T15:13:19;28.89;28.69
66861;SHT31;53770;42.334;23.550;2022-09-28T15:15:48;28.11;30.17
66861;SHT31;53770;42.334;23.550;2022-09-28T15:18:29;27.56;30.73
66861;SHT31;53770;42.334;23.550;2022-09-28T15:21:00;27.22;31.38
66861;SHT31;53770;42.334;23.550;2022-09-28T15:23:33;27.16;31.26
66861;SHT31;53770;42.334;23.550;2022-09-28T15:26:00;26.90;32.02
66861;SHT31;53770;42.334;23.550;2022-09-28T15:28:29;26.81;32.37
66861;SHT31;53770;42.334;23.550;2022-09-28T15:30:59;26.78;32.58
66861;SHT31;53770;42.334;23.550;2022-09-28T15:33:27;26.84;32.79
66861;SHT31;53770;42.334;23.550;2022-09-28T15:36:15;26.83;32.88
66861;SHT31;53770;42.334;23.550;2022-09-28T15:38:49;26.61;33.21
66861;SHT31;53770;42.334;23.550;2022-09-28T15:41:16;26.19;33.97
66861;SHT31;53770;42.334;23.550;2022-09-28T15:44:03;25.34;34.87
66861;SHT31;53770;42.334;23.550;2022-09-28T15:46:32;24.88;35.43
66861;SHT31;53770;42.334;23.550;2022-09-28T15:48:59;24.16;36.45
66861;SHT31;53770;42.334;23.550;2022-09-28T15:51:29;23.29;38.82
66861;SHT31;53770;42.334;23.550;2022-09-28T15:54:01;22.56;40.56
66861;SHT31;53770;42.334;23.550;2022-09-28T15:56:28;21.97;43.01
66861;SHT31;53770;42.334;23.550;2022-09-28T15:59:25;21.11;45.25
66861;SHT31;53770;42.334;23.550;2022-09-28T16:02:10;20.16;46.84
66861;SHT31;53770;42.334;23.550;2022-09-28T16:04:39;19.62;49.05
66861;SHT31;53770;42.334;23.550;2022-09-28T16:07:32;19.23;49.91
66861;SHT31;53770;42.334;23.550;2022-09-28T16:10:03;18.92;50.96
66861;SHT31;53770;42.334;23.550;2022-09-28T16:12:40;18.64;52.39